createdAt,value
2023-04-28T00:02:15.999Z,5.37
2023-04-28T00:05:03.766Z,5.60
2023-04-28T00:07:51.163Z,5.50
2023-04-28T00:10:38.587Z,3.80
2023-04-28T00:13:27.870Z,7.62
2023-04-28T00:16:15.142Z,6.30
2023-04-28T00:19:02.554Z,5.78
2023-04-28T00:21:50.245Z,7.33
2023-04-28T00:24:37.672Z,4.28
2023-04-28T00:27:24.930Z,5.30
2023-04-28T00:30:12.594Z,7.65
2023-04-28T00:32:59.944Z,4.42
2023-04-28T00:35:47.185Z,6.60
2023-04-28T00:38:35.815Z,5.35
2023-04-28T00:41:23.024Z,4.65
2023-04-28T00:44:10.502Z,4.47
2023-04-28T00:46:59.416Z,5.08
2023-04-28T00:49:49.063Z,6.65
2023-04-28T00:52:37.543Z,7.08
2023-04-28T00:55:27.087Z,5.87
2023-04-28T00:58:14.620Z,5.70
2023-04-28T01:01:06.443Z,8.38
2023-04-28T01:03:53.837Z,6.75
2023-04-28T01:06:43.381Z,5.45
2023-04-28T01:09:33.822Z,6.35
2023-04-28T01:12:22.763Z,8.35
2023-04-28T01:15:12.966Z,7.97
2023-04-28T01:18:00.190Z,7.30
2023-04-28T01:20:47.719Z,9.93
2023-04-28T01:23:35.057Z,6.33
2023-04-28T01:26:22.867Z,6.08
2023-04-28T01:29:10.044Z,5.58
2023-04-28T01:31:57.427Z,4.67
2023-04-28T01:34:45.045Z,11.48
2023-04-28T01:37:32.519Z,3.40
2023-04-28T01:40:19.763Z,5.92
2023-04-28T01:43:07.249Z,9.75
2023-04-28T01:45:54.599Z,3.77
2023-04-28T01:48:41.763Z,4.65
2023-04-28T01:51:29.364Z,7.37
2023-04-28T01:54:17.249Z,5.30
2023-04-28T01:57:04.809Z,5.95
2023-04-28T01:59:52.961Z,6.08
2023-04-28T02:02:40.868Z,5.17
2023-04-28T02:05:28.476Z,5.33
2023-04-28T02:08:15.945Z,13.50
2023-04-28T02:11:04.213Z,9.23
2023-04-28T02:13:51.320Z,6.83
2023-04-28T02:16:38.798Z,8.93
2023-04-28T02:19:26.276Z,8.23
2023-04-28T02:22:13.832Z,4.58
2023-04-28T02:25:01.355Z,11.73
2023-04-28T02:27:48.908Z,7.40
2023-04-28T02:30:36.368Z,11.97
2023-04-28T02:33:23.891Z,9.98
2023-04-28T02:36:11.614Z,6.35
2023-04-28T02:38:59.186Z,9.05
2023-04-28T02:41:46.354Z,12.40
2023-04-28T02:44:33.969Z,6.12
2023-04-28T02:47:21.550Z,7.55
2023-04-28T02:50:29.844Z,10.32
2023-04-28T02:53:17.575Z,9.28
2023-04-28T02:56:05.053Z,7.17
2023-04-28T02:58:52.361Z,6.35
2023-04-28T03:01:39.621Z,9.55
2023-04-28T03:04:27.443Z,8.03
2023-04-28T03:07:15.028Z,7.62
2023-04-28T03:10:02.798Z,7.45
2023-04-28T03:12:50.077Z,7.67
2023-04-28T03:15:37.248Z,8.43
2023-04-28T03:18:24.911Z,9.83
2023-04-28T03:21:12.326Z,9.30
2023-04-28T03:23:59.752Z,10.38
2023-04-28T03:26:47.152Z,10.32
2023-04-28T03:29:34.681Z,8.35
2023-04-28T03:32:21.868Z,8.58
2023-04-28T03:35:09.174Z,11.00
2023-04-28T03:37:56.518Z,8.03
2023-04-28T03:40:43.868Z,9.23
2023-04-28T03:43:34.971Z,9.45
2023-04-28T03:46:22.431Z,11.00
2023-04-28T03:49:09.978Z,7.87
2023-04-28T03:51:57.543Z,9.03
2023-04-28T03:54:44.994Z,7.50
2023-04-28T03:57:32.578Z,7.62
2023-04-28T04:00:20.443Z,8.90
2023-04-28T04:03:08.272Z,9.65
2023-04-28T04:05:55.659Z,11.25
2023-04-28T04:08:42.978Z,12.10
2023-04-28T04:11:30.448Z,9.58
2023-04-28T04:14:17.880Z,8.35
2023-04-28T04:17:05.382Z,6.42
2023-04-28T04:19:52.779Z,7.50
2023-04-28T04:22:40.547Z,11.83
2023-04-28T04:25:28.226Z,8.95
2023-04-28T04:28:15.772Z,9.90
2023-04-28T04:31:04.017Z,9.13
2023-04-28T04:33:52.502Z,12.20
2023-04-28T04:36:39.909Z,9.28
2023-04-28T04:39:27.533Z,12.15
2023-04-28T04:42:24.784Z,12.15
2023-04-28T04:45:03.909Z,12.95
2023-04-28T04:47:51.367Z,12.82
2023-04-28T04:50:38.752Z,13.62
2023-04-28T04:53:26.413Z,14.90
2023-04-28T04:56:13.852Z,10.15
2023-04-28T04:59:01.107Z,14.05
2023-04-28T05:01:48.805Z,16.40
2023-04-28T05:04:36.383Z,15.93
2023-04-28T05:07:23.661Z,16.27
2023-04-28T05:10:11.923Z,13.58
2023-04-28T05:12:59.644Z,15.83
2023-04-28T05:15:47.019Z,13.55
2023-04-28T05:18:34.086Z,13.55
2023-04-28T05:21:21.330Z,15.98
2023-04-28T05:24:09.077Z,17.67
2023-04-28T05:26:59.436Z,15.05
2023-04-28T05:29:46.882Z,14.90
2023-04-28T05:32:36.049Z,16.85
2023-04-28T05:35:23.902Z,15.83
2023-04-28T05:38:11.491Z,16.50
2023-04-28T05:40:59.506Z,18.57
2023-04-28T05:43:47.665Z,16.45
2023-04-28T05:46:36.032Z,16.73
2023-04-28T05:49:23.743Z,16.20
2023-04-28T05:52:11.198Z,15.53
2023-04-28T05:54:58.774Z,12.53
2023-04-28T05:57:53.065Z,16.87
2023-04-28T06:00:35.561Z,17.12
2023-04-28T06:03:23.067Z,20.80
2023-04-28T06:06:11.367Z,21.20
2023-04-28T06:08:59.187Z,16.45
2023-04-28T06:11:46.836Z,19.57
2023-04-28T06:14:36.198Z,17.55
2023-04-28T06:17:23.982Z,16.67
2023-04-28T06:20:13.666Z,19.48
2023-04-28T06:23:01.176Z,18.35
2023-04-28T06:25:48.592Z,20.65
2023-04-28T06:28:36.182Z,20.12
2023-04-28T06:31:23.499Z,19.45
2023-04-28T06:34:11.067Z,18.98
2023-04-28T06:37:00.136Z,20.88
2023-04-28T06:39:47.763Z,23.95
2023-04-28T06:42:35.335Z,21.77
2023-04-28T06:45:22.935Z,23.38
2023-04-28T06:48:10.663Z,24.90
2023-04-28T06:50:58.364Z,18.90
2023-04-28T06:53:45.768Z,25.92
2023-04-28T06:56:33.407Z,26.20
2023-04-28T06:59:20.416Z,20.52
2023-04-28T07:02:09.326Z,23.52
2023-04-28T07:04:56.956Z,27.73
2023-04-28T07:07:44.748Z,21.00
2023-04-28T07:10:32.350Z,22.73
2023-04-28T07:13:19.620Z,25.95
2023-04-28T07:16:08.444Z,27.65
2023-04-28T07:18:55.780Z,24.07
2023-04-28T07:21:43.325Z,28.23
2023-04-28T07:24:32.184Z,24.07
2023-04-28T07:27:19.771Z,21.02
2023-04-28T07:30:25.216Z,22.85
2023-04-28T07:32:58.768Z,26.23
2023-04-28T07:35:46.350Z,26.90
2023-04-28T07:38:35.904Z,22.25
2023-04-28T07:41:23.977Z,22.15
2023-04-28T07:44:11.218Z,21.00
2023-04-28T07:47:00.040Z,23.35
2023-04-28T07:49:47.372Z,24.23
2023-04-28T07:52:35.133Z,25.80
2023-04-28T07:55:22.469Z,18.32
2023-04-28T07:58:10.754Z,17.07
2023-04-28T08:00:58.509Z,20.20
2023-04-28T08:03:46.097Z,21.70
2023-04-28T08:06:34.364Z,19.32
2023-04-28T08:09:22.024Z,20.40
2023-04-28T08:12:09.402Z,23.98
2023-04-28T08:14:57.619Z,23.80
2023-04-28T08:17:45.048Z,22.93
2023-04-28T08:20:32.699Z,21.17
2023-04-28T08:23:20.486Z,19.10
2023-04-28T08:26:08.042Z,19.77
2023-04-28T08:28:55.496Z,23.32
2023-04-28T08:31:43.598Z,22.77
2023-04-28T08:34:30.917Z,20.35
2023-04-28T08:37:18.459Z,24.75
2023-04-28T08:40:08.324Z,26.48
2023-04-28T08:42:56.735Z,19.73
2023-04-28T08:45:45.562Z,22.52
2023-04-28T08:48:42.704Z,22.98
2023-04-28T08:54:29.555Z,20.10
2023-04-28T08:57:17.984Z,25.57
2023-04-28T09:00:05.649Z,18.50
2023-04-28T09:02:53.571Z,23.27
2023-04-28T09:05:41.220Z,18.62
2023-04-28T09:08:29.217Z,19.10
2023-04-28T09:11:16.895Z,17.85
2023-04-28T09:14:15.220Z,15.93
2023-04-28T09:17:04.244Z,23.42
2023-04-28T09:19:51.922Z,19.35
2023-04-28T09:22:39.122Z,22.00
2023-04-28T09:25:27.994Z,18.62
2023-04-28T09:28:22.355Z,17.90
2023-04-28T09:31:25.137Z,17.37
2023-04-28T09:34:15.858Z,18.80
2023-04-28T09:37:06.654Z,21.77
2023-04-28T09:39:55.667Z,25.65
2023-04-28T09:42:46.394Z,26.25
2023-04-28T09:45:37.740Z,34.03
2023-04-28T09:48:41.396Z,25.60
2023-04-28T09:51:28.747Z,23.57
2023-04-28T09:54:18.429Z,32.75
2023-04-28T09:57:06.218Z,25.30
2023-04-28T10:00:15.067Z,27.10
2023-04-28T10:03:03.330Z,27.32
2023-04-28T10:05:54.263Z,29.77
2023-04-28T10:08:41.862Z,27.22
2023-04-28T10:11:30.464Z,26.97
2023-04-28T10:14:17.687Z,26.25
2023-04-28T10:17:06.518Z,26.80
2023-04-28T10:19:55.350Z,27.30
2023-04-28T10:23:01.923Z,28.17
2023-04-28T10:25:52.414Z,26.93
2023-04-28T10:28:49.144Z,24.47
2023-04-28T10:31:36.989Z,22.27
2023-04-28T10:34:25.492Z,24.90
2023-04-28T10:37:14.356Z,22.80
2023-04-28T10:40:39.373Z,26.52
2023-04-28T10:43:32.873Z,23.60
2023-04-28T10:46:20.143Z,22.67
2023-04-28T10:49:08.547Z,27.87
2023-04-28T10:51:56.847Z,28.75
2023-04-28T10:54:47.314Z,29.60
2023-04-28T10:57:34.615Z,26.07
2023-04-28T11:00:30.659Z,26.10
2023-04-28T11:04:06.959Z,23.93
2023-04-28T11:07:13.570Z,25.20
2023-04-28T11:10:01.111Z,23.55
2023-04-28T11:13:11.124Z,23.73
2023-04-28T11:16:06.210Z,23.20
2023-04-28T11:19:02.929Z,22.40
2023-04-28T11:21:51.808Z,24.25
2023-04-28T11:24:39.076Z,23.95
2023-04-28T11:27:27.635Z,23.12
2023-04-28T11:30:22.625Z,25.62
2023-04-28T11:33:10.757Z,21.45
2023-04-28T11:35:57.928Z,22.42
2023-04-28T11:38:47.018Z,23.73
2023-04-28T11:41:35.578Z,22.30
2023-04-28T11:44:25.693Z,22.10
2023-04-28T11:47:13.242Z,21.05
2023-04-28T11:50:01.998Z,21.12
2023-04-28T11:52:53.004Z,22.60
2023-04-28T11:55:39.893Z,21.33
2023-04-28T11:58:27.704Z,19.90
2023-04-28T12:01:15.731Z,20.55
2023-04-28T12:04:03.427Z,21.65
2023-04-28T12:06:54.244Z,20.37
2023-04-28T12:10:00.924Z,20.52
2023-04-28T12:12:52.505Z,20.70
2023-04-28T12:15:43.786Z,20.02
2023-04-28T12:18:31.108Z,21.27
2023-04-28T12:21:22.363Z,19.25
2023-04-28T12:24:17.499Z,20.00
2023-04-28T12:27:25.286Z,21.82
2023-04-28T12:30:27.112Z,22.75
2023-04-28T12:33:26.285Z,17.40
2023-04-28T12:36:13.771Z,14.80
2023-04-28T12:39:01.139Z,16.52
2023-04-28T12:41:48.441Z,14.25
2023-04-28T12:44:37.801Z,16.00
2023-04-28T12:47:25.733Z,14.95
2023-04-28T12:50:13.254Z,18.90
2023-04-28T12:53:00.817Z,13.45
2023-04-28T12:56:07.436Z,14.65
2023-04-28T12:58:55.053Z,14.50
2023-04-28T13:01:44.464Z,12.47
2023-04-28T13:04:32.787Z,12.58
2023-04-28T13:07:20.440Z,11.85
2023-04-28T13:10:08.986Z,11.40
2023-04-28T13:12:56.337Z,12.78
2023-04-28T13:15:44.088Z,12.15
2023-04-28T13:18:32.308Z,14.25
2023-04-28T13:21:19.659Z,12.28
2023-04-28T13:24:07.261Z,10.88
2023-04-28T13:26:54.790Z,12.85
2023-04-28T13:29:42.911Z,11.50
2023-04-28T13:32:30.057Z,11.65
2023-04-28T13:35:18.113Z,12.18
2023-04-28T13:38:05.567Z,14.28
2023-04-28T13:40:53.497Z,15.53
2023-04-28T13:43:41.533Z,12.20
2023-04-28T13:46:29.561Z,13.15
2023-04-28T13:49:17.119Z,12.55
2023-04-28T13:52:04.616Z,13.40
2023-04-28T13:54:52.321Z,11.73
2023-04-28T13:57:40.106Z,10.20
2023-04-28T14:00:27.895Z,11.08
2023-04-28T14:03:15.725Z,11.35
2023-04-28T14:06:04.161Z,9.68
2023-04-28T14:08:51.893Z,11.03
2023-04-28T14:11:39.198Z,12.33
2023-04-28T14:14:26.636Z,10.85
2023-04-28T14:17:14.103Z,10.40
2023-04-28T14:20:02.404Z,12.05
2023-04-28T14:22:49.449Z,13.00
2023-04-28T14:25:37.582Z,11.28
2023-04-28T14:28:25.444Z,12.05
2023-04-28T14:31:12.910Z,14.90
2023-04-28T14:34:00.278Z,13.48
2023-04-28T14:36:48.650Z,15.13
2023-04-28T14:39:36.911Z,13.10
2023-04-28T14:42:31.101Z,12.43
2023-04-28T14:45:18.398Z,12.85
2023-04-28T14:48:07.736Z,10.90
2023-04-28T14:50:54.960Z,10.78
2023-04-28T14:53:42.593Z,10.43
2023-04-28T14:56:30.764Z,8.23
2023-04-28T14:59:42.556Z,11.03
2023-04-28T15:02:29.883Z,7.20
2023-04-28T15:05:17.618Z,6.67
2023-04-28T15:08:05.311Z,6.05
2023-04-28T15:10:53.034Z,7.80
2023-04-28T15:13:42.853Z,7.85
2023-04-28T15:16:29.702Z,9.15
2023-04-28T15:19:17.090Z,6.80
2023-04-28T15:22:04.954Z,6.72
2023-04-28T15:24:52.853Z,6.47
2023-04-28T15:27:40.393Z,5.30
2023-04-28T15:30:27.627Z,6.45
2023-04-28T15:33:17.918Z,9.20
2023-04-28T15:36:05.475Z,6.80
2023-04-28T15:38:53.009Z,5.78
2023-04-28T15:41:40.566Z,6.62
2023-04-28T15:44:30.396Z,6.40
2023-04-28T15:47:17.297Z,7.55
2023-04-28T15:50:04.658Z,5.80
2023-04-28T15:52:52.273Z,4.95
2023-04-28T15:55:39.604Z,5.47
2023-04-28T15:58:27.321Z,8.20
2023-04-28T16:01:14.696Z,5.58
2023-04-28T16:04:02.502Z,6.03
2023-04-28T16:06:52.116Z,10.58
2023-04-28T16:09:39.376Z,5.92
2023-04-28T16:12:26.871Z,6.53
2023-04-28T16:15:15.420Z,5.30
2023-04-28T16:18:03.187Z,5.33
2023-04-28T16:20:51.729Z,5.90
2023-04-28T16:23:39.249Z,6.78
2023-04-28T16:26:26.784Z,5.95
2023-04-28T16:29:14.774Z,7.90
2023-04-28T16:32:02.190Z,5.55
2023-04-28T16:34:49.682Z,7.00
2023-04-28T16:37:39.014Z,7.05
2023-04-28T16:40:26.399Z,6.55
2023-04-28T16:43:14.266Z,5.05
2023-04-28T16:46:01.496Z,8.48
2023-04-28T16:48:50.496Z,5.92
2023-04-28T16:51:38.384Z,6.25
2023-04-28T16:54:29.694Z,5.85
2023-04-28T16:57:18.820Z,6.47
2023-04-28T17:00:07.717Z,6.45
2023-04-28T17:02:54.962Z,6.87
2023-04-28T17:05:42.530Z,6.22
2023-04-28T17:08:29.840Z,5.75
2023-04-28T17:11:18.096Z,7.17
2023-04-28T17:14:06.780Z,5.85
2023-04-28T17:16:54.494Z,5.70
2023-04-28T17:19:42.161Z,7.00
2023-04-28T17:22:30.685Z,6.15
2023-04-28T17:25:18.477Z,6.87
2023-04-28T17:28:06.577Z,9.13
2023-04-28T17:30:54.934Z,10.48
2023-04-28T17:33:42.034Z,9.68
2023-04-28T17:36:30.431Z,9.70
2023-04-28T17:39:18.311Z,10.35
2023-04-28T17:42:05.527Z,9.53
2023-04-28T17:44:53.403Z,8.48
2023-04-28T17:47:40.860Z,9.40
2023-04-28T17:50:28.575Z,8.60
2023-04-28T17:53:16.370Z,10.32
2023-04-28T17:56:03.995Z,10.70
2023-04-28T17:58:51.812Z,9.75
2023-04-28T18:01:39.390Z,9.03
2023-04-28T18:04:27.039Z,10.78
2023-04-28T18:07:14.354Z,13.00
2023-04-28T18:10:01.842Z,10.40
2023-04-28T18:12:50.547Z,10.50
2023-04-28T18:15:38.067Z,10.82
2023-04-28T18:18:27.255Z,9.65
2023-04-28T18:21:14.909Z,13.15
2023-04-28T18:24:02.866Z,11.65
2023-04-28T18:26:50.429Z,10.78
2023-04-28T18:29:37.886Z,9.20
2023-04-28T18:32:25.465Z,10.30
2023-04-28T18:35:12.719Z,10.65
2023-04-28T18:38:00.954Z,11.97
2023-04-28T18:40:48.326Z,14.13
2023-04-28T18:43:37.092Z,13.78
2023-04-28T18:46:25.249Z,13.98
2023-04-28T18:49:12.804Z,13.10
2023-04-28T18:52:03.084Z,12.37
2023-04-28T18:54:50.470Z,10.03
2023-04-28T18:57:38.289Z,13.03
2023-04-28T19:00:26.003Z,14.80
2023-04-28T19:03:14.202Z,12.30
2023-04-28T19:06:02.037Z,8.35
2023-04-28T19:08:49.159Z,17.25
2023-04-28T19:11:36.656Z,12.75
2023-04-28T19:14:24.167Z,16.15
2023-04-28T19:17:11.902Z,11.60
2023-04-28T19:19:59.231Z,15.20
2023-04-28T19:22:47.035Z,15.18
2023-04-28T19:25:36.337Z,16.57
2023-04-28T19:28:25.895Z,19.27
2023-04-28T19:31:13.408Z,13.20
2023-04-28T19:34:00.831Z,17.35
2023-04-28T19:36:48.462Z,15.98
2023-04-28T19:39:36.239Z,13.93
2023-04-28T19:42:23.815Z,15.38
2023-04-28T19:45:11.390Z,12.23
2023-04-28T19:47:58.803Z,13.58
2023-04-28T19:50:48.871Z,18.25
2023-04-28T19:53:38.785Z,16.70
2023-04-28T19:56:26.027Z,15.00
2023-04-28T19:59:13.597Z,12.00
2023-04-28T20:02:01.292Z,13.30
2023-04-28T20:04:49.059Z,11.75
2023-04-28T20:07:40.419Z,12.68
2023-04-28T20:10:28.090Z,14.25
2023-04-28T20:13:16.607Z,13.22
2023-04-28T20:16:04.543Z,12.40
2023-04-28T20:18:52.599Z,12.23
2023-04-28T20:21:41.439Z,11.90
2023-04-28T20:24:28.670Z,8.18
2023-04-28T20:27:18.035Z,8.30
2023-04-28T20:30:05.917Z,8.18
2023-04-28T20:32:57.968Z,5.40
2023-04-28T20:35:45.229Z,10.40
2023-04-28T20:38:33.076Z,6.12
2023-04-28T20:41:21.636Z,3.90
2023-04-28T20:44:09.256Z,5.42
2023-04-28T20:46:57.133Z,3.47
2023-04-28T20:49:44.857Z,5.37
2023-04-28T20:52:32.362Z,2.52
2023-04-28T20:55:19.890Z,2.40
2023-04-28T20:58:07.413Z,3.12
2023-04-28T21:00:54.815Z,2.35
2023-04-28T21:03:42.346Z,5.72
2023-04-28T21:06:30.136Z,2.17
2023-04-28T21:09:17.681Z,3.60
2023-04-28T21:12:05.525Z,3.58
2023-04-28T21:14:52.970Z,6.55
2023-04-28T21:17:40.652Z,3.92
2023-04-28T21:20:28.685Z,3.58
2023-04-28T21:23:17.213Z,2.72
2023-04-28T21:26:04.962Z,6.53
2023-04-28T21:28:52.146Z,4.28
2023-04-28T21:31:39.626Z,6.85
2023-04-28T21:34:27.687Z,3.72
2023-04-28T21:37:17.716Z,3.00
2023-04-28T21:40:05.506Z,2.87
2023-04-28T21:42:52.952Z,3.33
2023-04-28T21:45:40.402Z,3.55
2023-04-28T21:48:27.856Z,4.67
2023-04-28T21:51:16.597Z,4.70
2023-04-28T21:54:03.940Z,3.02
2023-04-28T21:56:52.060Z,5.83
2023-04-28T21:59:39.644Z,4.45
2023-04-28T22:02:27.558Z,4.30
2023-04-28T22:05:15.910Z,3.08
2023-04-28T22:08:03.542Z,3.40
2023-04-28T22:10:50.820Z,4.03
2023-04-28T22:13:38.181Z,3.85
2023-04-28T22:16:25.772Z,4.70
2023-04-28T22:19:13.402Z,4.42
2023-04-28T22:22:00.766Z,4.42
2023-04-28T22:24:49.938Z,4.30
2023-04-28T22:27:37.393Z,2.55
2023-04-28T22:30:26.102Z,4.53
2023-04-28T22:33:13.855Z,2.98
2023-04-28T22:36:01.356Z,4.17
2023-04-28T22:38:48.815Z,3.47
2023-04-28T22:41:36.297Z,5.95
2023-04-28T22:44:23.787Z,4.72
2023-04-28T22:47:11.755Z,4.50
2023-04-28T22:49:59.533Z,2.17
2023-04-28T22:52:47.734Z,8.88
2023-04-28T22:55:36.330Z,3.50
2023-04-28T22:58:23.866Z,4.87
2023-04-28T23:01:12.087Z,3.15
2023-04-28T23:03:59.919Z,3.40
2023-04-28T23:06:47.658Z,2.98
2023-04-28T23:09:37.078Z,3.65
2023-04-28T23:12:24.782Z,3.08
2023-04-28T23:15:12.605Z,5.47
2023-04-28T23:17:59.909Z,4.97
2023-04-28T23:20:50.428Z,3.15
2023-04-28T23:23:38.041Z,3.80
2023-04-28T23:26:26.138Z,3.70
2023-04-28T23:29:13.660Z,4.67
2023-04-28T23:32:01.132Z,3.37
2023-04-28T23:34:50.449Z,3.83
2023-04-28T23:37:38.447Z,4.45
2023-04-28T23:40:26.688Z,3.55
2023-04-28T23:43:14.811Z,3.58
2023-04-28T23:46:02.511Z,3.35
2023-04-28T23:48:49.907Z,4.50
2023-04-28T23:51:37.435Z,4.95
2023-04-28T23:54:24.949Z,5.33
2023-04-28T23:57:12.417Z,6.17
